SiteLock Weer in Ekeren en de Haven van Antwerpen - Nearby METAR Reports

Nearby METAR Reports

 

KSJC - San Jose, California, USA
Distance from station: NO 14km
Ververst: 12/12/2018 21:53
Gedeeltelijk bewolkt
Gedeeltelijk bewolkt
 Wind van NW
Wind: NW 19 km/h
Temperatuur: 15°C
Dauwpunt: 8°C
Vochtigheid: 63%
Barometer: 1023.4 hPa
Clouds: Gedeeltelijk bewolkt
Visibility: 16 km
Cloud details: Few Clouds 701 m
Gedeeltelijk bewolkt 2438 m
2018/12/12 20:53 KSJC 122053Z 31010KT 10SM FEW023 SCT080 15/08 A3022 RMK AO2 SLP232 T01500078 58019
KNUQ - Moffett Nas/Mtn, California, USA
Distance from station: N 14km
Ververst: 12/12/2018 21:56
Helder
Helder
 Wind van NW
Wind: NW 13 km/h
Temperatuur: 16°C
Dauwpunt: 8°C
Vochtigheid: 59%
Barometer: 1023.7 hPa
Clouds: Helder
Visibility: 16 km
2018/12/12 20:56 KNUQ 122056Z 32007KT 10SM CLR 16/08 A3023 RMK AO2 SLP239 T01560078 58024
 
KPAO - Palo Alto, California, USA
Distance from station: NNW 23km
Ververst: 12/12/2018 20:47
NOT Current
Helder
Helder
 Wind van NW
Wind: NW 19 km/h
Temperatuur: 14°C
Dauwpunt: 9°C
Vochtigheid: 72%
Barometer: 1025.1 hPa
Clouds: Helder
Visibility: 16 km
2018/12/12 19:47 KPAO 121947Z 31010KT 10SM SKC 14/09 A3027
KRHV - San Jose/Reid, California, USA
Distance from station: ONO 19km
Ververst: 12/12/2018 21:51
Few Clouds
Few Clouds
 Wind van W
Wind: W 13 km/h
Temperatuur: 15°C
Dauwpunt: 8°C
Vochtigheid: 63%
Barometer: 1022.7 hPa
Clouds: Few Clouds
Visibility: 16 km
Cloud details: Few Clouds 549 m
2018/12/12 20:51 KRHV 122051Z 28007KT 10SM FEW018 15/08 A3020
 
KOAK - Oakland, California, USA
Distance from station: NNW 50km
Ververst: 12/12/2018 21:53
Few Clouds
Few Clouds
 Wind van WNW
Wind: WNW 15 km/h
Temperatuur: 14°C
Dauwpunt: 8°C
Vochtigheid: 67%
Barometer: 1024.4 hPa
Clouds: Few Clouds
Visibility: 13 km
Cloud details: Few Clouds 6096 m
2018/12/12 20:53 KOAK 122053Z 29008KT 8SM FEW200 14/08 A3025 RMK AO2 SLP242 T01390083 58025
KSQL - San Carlos Airpo, California, USA
Distance from station: NW 34km
Ververst: 12/12/2018 21:47
Few Clouds
Few Clouds
 Wind van calm
Wind: Kalm
Temperatuur: 14°C
Dauwpunt: 7°C
Vochtigheid: 63%
Barometer: 1024 hPa
Clouds: Few Clouds
Visibility: 16 km
Cloud details: Few Clouds 5486 m
2018/12/12 20:47 KSQL 122047Z 00000KT 10SM FEW180 14/07 A3024
 
KSFO - San Francisco, California, USA
Distance from station: NW 49km
Ververst: 12/12/2018 21:56
Gedeeltelijk bewolkt
Gedeeltelijk bewolkt
 Wind van NNO
Wind: NNO 6 km/h
Temperatuur: 13°C
Dauwpunt: 7°C
Vochtigheid: 67%
Barometer: 1023.7 hPa
Clouds: Gedeeltelijk bewolkt
Visibility: 14 km
Cloud details: Gedeeltelijk bewolkt 6096 m
2018/12/12 20:56 KSFO 122056Z 03003KT 9SM SCT200 13/07 A3023 RMK AO2 SLP238 T01330072 58021
KE16 - San Martin, California, USA
Distance from station: OZO 43km
Ververst: 12/12/2018 22:30
Helder
Helder
 Wind van NNW
Wind: NNW 20 km/h, Windvlaag: 26 km/h
Temperatuur: 15°C
Dauwpunt: 8°C
Vochtigheid: 63%
Barometer: 1023 hPa
Clouds: Helder
Visibility: 16 km
2018/12/12 21:30 KE16 122130Z AUTO 33011G14KT 10SM CLR 15/08 A3021 RMK AO2
 
KWVI - Watsonville, California, USA
Distance from station: ZZO 44km
Ververst: 12/12/2018 21:53
Helder
Helder
 Wind van ZZW
Wind: ZZW 7 km/h
Temperatuur: 17°C
Dauwpunt: 9°C
Vochtigheid: 59%
Barometer: 1022.4 hPa
Clouds: Helder
Visibility: 16 km
2018/12/12 20:53 KWVI 122053Z AUTO 20004KT 10SM CLR 17/09 A3019 RMK AO2 SLP221 T01720094 58021
KHAF - Half Moon Bay, California, USA
Distance from station: WNW 50km
Ververst: 12/12/2018 22:40
Helder
Helder
 Wind van N
Wind: N 19 km/h
Temperatuur: 17°C
Dauwpunt: 5°C
Vochtigheid: 45%
Barometer: 1023.7 hPa
Clouds: Helder
Visibility: 16 km
2018/12/12 21:40 KHAF 122140Z AUTO 35010KT 10SM CLR 17/05 A3023 RMK AO2
 
KHWD - Hayward, California, USA
Distance from station: N 44km
Ververst: 12/12/2018 21:54
Helder
Helder
 Wind van varies
Wind: varies 9 km/h
Temperatuur: 18°C
Dauwpunt: 3°C
Vochtigheid: 37%
Barometer: 1023.7 hPa
Clouds: Helder
Visibility: 16 km
2018/12/12 20:54 KHWD 122054Z VRB05KT 10SM CLR 18/03 A3023 RMK AO2 SLP245 T01830033 58027
KLVK - Livermore, California, USA
Distance from station: NNO 51km
Ververst: 12/12/2018 21:53
Helder
Helder
 Wind van ONO
Wind: ONO 28 km/h
Temperatuur: 15°C
Dauwpunt: 4°C
Vochtigheid: 48%
Barometer: 1023.4 hPa
Clouds: Helder
Visibility: 13 km
2018/12/12 20:53 KLVK 122053Z 07015KT 8SM CLR 15/04 A3022 RMK AO2 WSHFT 2020 SLP235 T01500044 58028